createdAt,value
2019-01-13T15:01:54.672Z,12.50
2019-01-13T15:04:21.104Z,12.50
2019-01-13T15:06:47.331Z,12.80
2019-01-13T15:09:13.526Z,13.20
2019-01-13T15:11:39.818Z,13.50
2019-01-13T15:14:06.018Z,13.70
2019-01-13T15:16:32.944Z,13.90
2019-01-13T15:18:58.464Z,14.00
2019-01-13T15:21:24.696Z,14.10
2019-01-13T15:23:50.921Z,14.20
2019-01-13T15:26:17.145Z,14.20
2019-01-13T15:28:43.570Z,14.20
2019-01-13T15:31:10.824Z,14.30
2019-01-13T15:33:37.055Z,14.30
2019-01-13T15:36:03.286Z,14.30
2019-01-13T15:38:29.524Z,14.30
2019-01-13T15:40:55.751Z,14.30
2019-01-13T15:43:21.965Z,14.40
2019-01-13T15:45:48.196Z,14.40
2019-01-13T15:48:14.420Z,14.40
2019-01-13T15:50:40.647Z,14.50
2019-01-13T15:53:06.872Z,14.50
2019-01-13T15:55:33.107Z,14.50
2019-01-13T15:57:59.332Z,14.50
2019-01-13T16:00:25.562Z,14.50
2019-01-13T16:02:51.792Z,14.60
2019-01-13T16:05:18.011Z,14.60
2019-01-13T16:07:44.250Z,14.60
2019-01-13T16:10:10.580Z,14.60
2019-01-13T16:12:37.105Z,14.70
2019-01-13T16:15:03.343Z,14.60
2019-01-13T16:17:29.502Z,14.60
2019-01-13T16:19:55.792Z,14.60
2019-01-13T16:22:22.016Z,14.70
2019-01-13T16:24:48.252Z,14.70
2019-01-13T16:27:14.472Z,14.70
2019-01-13T16:29:40.706Z,14.70
2019-01-13T16:32:07.345Z,14.70
2019-01-13T16:34:33.564Z,14.70
2019-01-13T16:36:59.791Z,14.70
2019-01-13T16:39:26.118Z,14.70
2019-01-13T16:41:52.665Z,14.80
2019-01-13T16:44:18.884Z,14.80
2019-01-13T16:46:45.120Z,14.90
2019-01-13T16:49:11.350Z,14.90
2019-01-13T16:51:37.572Z,15.00
2019-01-13T16:54:03.821Z,15.00
2019-01-13T16:56:30.036Z,15.00
2019-01-13T16:58:56.257Z,14.80
2019-01-13T17:01:22.484Z,14.80
2019-01-13T17:03:48.713Z,14.80
2019-01-13T17:06:14.954Z,14.80
2019-01-13T17:08:41.168Z,14.90
2019-01-13T17:11:07.387Z,14.90
2019-01-13T17:13:33.620Z,14.90
2019-01-13T17:15:59.862Z,14.90
2019-01-13T17:18:26.076Z,15.00
2019-01-13T17:20:52.314Z,15.20
2019-01-13T17:23:18.948Z,15.10
2019-01-13T17:25:45.174Z,15.00
2019-01-13T17:28:11.396Z,15.00
2019-01-13T17:30:37.625Z,15.10
2019-01-13T17:33:03.859Z,15.10
2019-01-13T17:35:30.086Z,15.10
2019-01-13T17:37:56.322Z,15.20
2019-01-13T17:40:22.561Z,15.30
2019-01-13T17:42:48.725Z,15.20
2019-01-13T17:45:15.001Z,15.20
2019-01-13T17:47:41.256Z,15.40
2019-01-13T17:50:07.456Z,15.30
2019-01-13T17:52:33.685Z,15.20
2019-01-13T17:54:59.971Z,15.30
2019-01-13T17:57:26.142Z,15.10
2019-01-13T17:59:52.303Z,15.10
2019-01-13T18:02:19.526Z,15.10
2019-01-13T18:04:44.823Z,15.20
2019-01-13T18:07:11.053Z,15.20
2019-01-13T18:09:37.733Z,15.20
2019-01-13T18:12:03.930Z,15.30
2019-01-13T18:14:30.154Z,15.30
2019-01-13T18:16:56.383Z,15.30
2019-01-13T18:19:22.604Z,15.30
2019-01-13T18:21:48.833Z,15.30
2019-01-13T18:24:15.062Z,15.40
2019-01-13T18:26:41.222Z,15.40
2019-01-13T18:29:07.380Z,15.30
2019-01-13T18:31:33.744Z,15.20
2019-01-13T18:33:59.967Z,15.10
2019-01-13T18:36:26.197Z,14.90
